Time;durP1;ratioP1;P1;durP2;ratioP2;P2;SDS_P1;SDS_P2;PMS_P1;PMS_P2;Temp;Humidity;BMP_temperature;BMP_pressure;BME280_temperature;BME280_humidity;BME280_pressure;Samples;Min_cycle;Max_cycle;Signal;HPM_P1;HPM_P2
2023/10/27 00:00:09;;;;;;;10.23;2.20;;;12.30;1.00;;;;;;5103719;28;20179;-78
2023/10/27 00:02:38;;;;;;;9.50;2.57;;;12.30;1.00;;;;;;5096371;28;20320;-79
2023/10/27 00:05:04;;;;;;;8.30;2.50;;;12.30;1.00;;;;;;5106494;28;20182;-78
2023/10/27 00:07:30;;;;;;;7.20;2.00;;;12.30;1.00;;;;;;5110958;28;20455;-79
2023/10/27 00:09:55;;;;;;;8.13;2.30;;;12.30;1.00;;;;;;5100047;28;20464;-78
2023/10/27 00:12:21;;;;;;;7.13;2.77;;;12.30;1.00;;;;;;5108383;28;20205;-78
2023/10/27 00:14:46;;;;;;;13.83;3.30;;;12.30;1.00;;;;;;5101993;28;20202;-78
2023/10/27 00:17:12;;;;;;;8.07;3.40;;;12.30;1.00;;;;;;5106491;28;20672;-79
2023/10/27 00:19:38;;;;;;;8.40;2.33;;;12.30;1.00;;;;;;5105840;28;20171;-77
2023/10/27 00:22:03;;;;;;;9.77;2.60;;;12.30;1.00;;;;;;5095336;28;20191;-75
2023/10/27 00:24:29;;;;;;;5.20;2.63;;;12.30;1.00;;;;;;5092619;28;20228;-79
2023/10/27 00:26:54;;;;;;;11.63;2.77;;;12.30;1.00;;;;;;5105052;28;20406;-79
2023/10/27 00:29:20;;;;;;;5.33;2.53;;;12.30;1.00;;;;;;5098448;28;20191;-75
2023/10/27 00:31:45;;;;;;;14.27;2.70;;;12.30;1.00;;;;;;5108991;28;20553;-80
2023/10/27 00:34:11;;;;;;;12.80;2.90;;;12.30;1.00;;;;;;5110794;28;20179;-78
2023/10/27 00:36:36;;;;;;;7.20;2.87;;;12.30;1.00;;;;;;5105536;28;20199;-78
2023/10/27 00:39:03;;;;;;;10.43;2.87;;;14.40;1.00;;;;;;5105638;28;20179;-78
2023/10/27 00:41:30;;;;;;;8.87;3.00;;;12.30;1.00;;;;;;5096251;28;20183;-78
2023/10/27 00:43:55;;;;;;;9.33;2.60;;;12.20;1.00;;;;;;5111377;28;20440;-78
2023/10/27 00:46:21;;;;;;;6.17;2.50;;;12.20;1.00;;;;;;5096233;28;20772;-78
2023/10/27 00:48:46;;;;;;;9.43;2.87;;;12.30;1.00;;;;;;5092758;28;20718;-79
2023/10/27 00:51:12;;;;;;;10.83;2.90;;;12.30;1.00;;;;;;5105876;28;20202;-82
2023/10/27 00:53:38;;;;;;;8.10;2.87;;;12.30;1.00;;;;;;5098834;28;20708;-81
2023/10/27 00:56:04;;;;;;;11.50;2.80;;;12.30;1.00;;;;;;5097145;28;20454;-78
2023/10/27 00:58:30;;;;;;;7.00;2.50;;;12.40;1.00;;;;;;5102735;28;20500;-78
2023/10/27 01:01:00;;;;;;;9.00;3.20;;;12.30;1.00;;;;;;5107571;28;20191;-78
2023/10/27 01:03:25;;;;;;;6.40;2.43;;;12.40;1.00;;;;;;5091221;28;20445;-78
2023/10/27 01:05:51;;;;;;;11.80;3.27;;;12.40;1.00;;;;;;5092309;28;21042;-78
2023/10/27 01:08:17;;;;;;;6.00;2.50;;;12.40;1.00;;;;;;5092347;28;20188;-81
2023/10/27 01:10:42;;;;;;;9.17;3.20;;;12.40;1.00;;;;;;5093765;28;20732;-75
2023/10/27 01:13:08;;;;;;;8.60;2.77;;;12.40;1.00;;;;;;5090147;28;20206;-80
2023/10/27 01:15:33;;;;;;;6.73;2.20;;;12.40;1.00;;;;;;5094982;28;20605;-80
2023/10/27 01:17:59;;;;;;;12.43;3.00;;;12.40;1.00;;;;;;5096117;28;20179;-77
2023/10/27 01:20:24;;;;;;;12.13;3.07;;;12.40;1.00;;;;;;5089555;28;20176;-77
2023/10/27 01:22:50;;;;;;;8.43;2.30;;;12.40;1.00;;;;;;5091322;28;20188;-76
2023/10/27 01:25:16;;;;;;;7.03;2.80;;;12.40;1.00;;;;;;5100282;28;20187;-79
2023/10/27 01:27:42;;;;;;;6.00;2.00;;;12.40;1.00;;;;;;5098816;28;20203;-79
2023/10/27 01:30:09;;;;;;;10.37;2.70;;;12.40;1.00;;;;;;5099040;28;20449;-81
2023/10/27 01:32:35;;;;;;;4.57;2.27;;;12.40;1.00;;;;;;5099132;28;20460;-79
2023/10/27 01:35:01;;;;;;;14.43;2.43;;;12.40;1.00;;;;;;5103343;27;20444;-77
2023/10/27 01:37:27;;;;;;;5.30;2.00;;;12.40;1.00;;;;;;5101678;28;20463;-78
2023/10/27 01:39:52;;;;;;;10.10;2.03;;;12.50;1.00;;;;;;5098843;28;20198;-80
2023/10/27 01:42:18;;;;;;;4.80;2.17;;;12.50;1.00;;;;;;5099888;28;20662;-78
2023/10/27 01:44:43;;;;;;;7.43;2.57;;;12.10;1.00;;;;;;5098048;28;20661;-78
2023/10/27 01:47:09;;;;;;;4.97;2.10;;;12.50;1.00;;;;;;5104240;28;20238;-79
2023/10/27 01:49:34;;;;;;;4.87;2.10;;;12.50;1.00;;;;;;5103830;28;20175;-74
2023/10/27 01:52:00;;;;;;;4.10;2.00;;;12.60;1.00;;;;;;5089453;28;20203;-76
2023/10/27 01:54:25;;;;;;;6.93;2.20;;;12.70;1.00;;;;;;5102535;28;20188;-78
2023/10/27 01:56:51;;;;;;;5.60;2.33;;;12.60;1.00;;;;;;5107371;28;20222;-81
2023/10/27 01:59:16;;;;;;;3.93;2.10;;;12.60;1.00;;;;;;5106485;28;20723;-78
2023/10/27 02:01:42;;;;;;;10.07;1.80;;;12.60;1.00;;;;;;5104905;28;20194;-78
2023/10/27 02:04:07;;;;;;;3.90;1.93;;;12.60;1.00;;;;;;5109424;28;20194;-79
2023/10/27 02:06:33;;;;;;;4.87;2.10;;;12.60;1.00;;;;;;5091853;28;20200;-78
2023/10/27 02:08:58;;;;;;;5.90;2.10;;;12.60;1.00;;;;;;5088620;28;20175;-77
2023/10/27 02:11:24;;;;;;;8.13;2.10;;;12.60;1.00;;;;;;5094542;28;20203;-77
2023/10/27 02:13:49;;;;;;;3.27;1.70;;;12.60;1.00;;;;;;5091136;28;20697;-78
2023/10/27 02:16:15;;;;;;;4.43;1.63;;;12.60;1.00;;;;;;5090965;28;20290;-78
2023/10/27 02:18:40;;;;;;;8.20;2.37;;;12.60;1.00;;;;;;5092954;28;20231;-79
2023/10/27 02:21:06;;;;;;;5.43;1.97;;;12.80;1.00;;;;;;5105071;28;20657;-81
2023/10/27 02:23:32;;;;;;;8.70;2.10;;;12.50;1.00;;;;;;5092765;28;20227;-82
2023/10/27 02:25:58;;;;;;;5.90;2.07;;;12.50;1.00;;;;;;5093297;28;20685;-78
2023/10/27 02:28:24;;;;;;;4.70;1.93;;;12.60;1.00;;;;;;5094136;28;20522;-79
2023/10/27 02:30:49;;;;;;;4.07;1.80;;;12.50;1.00;;;;;;5101222;28;20202;-77
2023/10/27 02:33:15;;;;;;;3.83;1.67;;;12.50;1.00;;;;;;5092537;28;20278;-80
2023/10/27 02:35:40;;;;;;;8.33;1.80;;;12.50;1.00;;;;;;5100032;28;20658;-79
2023/10/27 02:38:06;;;;;;;8.33;1.70;;;12.50;1.00;;;;;;5093789;28;20685;-78
2023/10/27 02:40:34;;;;;;;2.63;1.77;;;12.50;1.00;;;;;;5089720;28;20649;-78
2023/10/27 02:42:59;;;;;;;7.10;2.10;;;12.70;1.00;;;;;;5094446;28;20190;-78
2023/10/27 02:45:25;;;;;;;3.83;2.07;;;12.60;1.00;;;;;;5095868;28;20455;-78
2023/10/27 02:47:50;;;;;;;4.27;1.90;;;12.60;1.00;;;;;;5094342;28;20214;-77
2023/10/27 02:50:16;;;;;;;8.90;2.00;;;12.60;1.00;;;;;;5096130;28;20293;-80
2023/10/27 02:52:41;;;;;;;3.20;1.90;;;12.60;1.00;;;;;;5094835;28;21373;-81
2023/10/27 02:55:09;;;;;;;4.30;2.00;;;12.60;1.00;;;;;;5100143;28;20538;-78
2023/10/27 02:57:34;;;;;;;3.20;1.70;;;12.60;1.00;;;;;;5091908;28;20230;-78
2023/10/27 03:00:00;;;;;;;11.90;1.80;;;12.50;1.00;;;;;;5096659;28;20859;-79
2023/10/27 03:02:26;;;;;;;7.87;1.87;;;12.50;1.00;;;;;;5091827;28;20816;-81
2023/10/27 03:04:54;;;;;;;3.93;1.57;;;12.50;1.00;;;;;;5090213;28;20182;-79
2023/10/27 03:07:19;;;;;;;3.73;1.63;;;12.40;1.00;;;;;;5102235;28;20449;-78
2023/10/27 03:09:45;;;;;;;6.13;1.80;;;12.50;1.00;;;;;;5099531;28;20437;-78
2023/10/27 03:12:11;;;;;;;8.10;1.70;;;12.40;1.00;;;;;;5094701;28;20669;-78
2023/10/27 03:14:37;;;;;;;5.73;1.77;;;12.40;1.00;;;;;;5096347;28;20697;-78
2023/10/27 03:17:03;;;;;;;2.23;1.50;;;12.40;1.00;;;;;;5099291;28;20457;-77
2023/10/27 03:19:29;;;;;;;9.50;1.77;;;12.40;1.00;;;;;;5093274;28;20202;-81
2023/10/27 03:21:54;;;;;;;5.10;2.00;;;12.40;1.00;;;;;;5088503;28;20187;-81
2023/10/27 03:24:19;;;;;;;11.50;2.20;;;12.40;1.00;;;;;;5096138;28;20302;-75
2023/10/27 03:26:45;;;;;;;7.90;2.07;;;12.40;1.00;;;;;;5099802;28;20745;-80
2023/10/27 03:29:11;;;;;;;6.83;1.67;;;12.30;1.00;;;;;;5096646;28;20199;-78
2023/10/27 03:31:36;;;;;;;3.87;1.90;;;12.40;1.00;;;;;;5103674;28;20188;-77
2023/10/27 03:34:02;;;;;;;2.43;1.70;;;12.30;1.00;;;;;;5103827;28;20194;-76
2023/10/27 03:36:28;;;;;;;15.60;1.80;;;12.30;1.00;;;;;;5102156;28;20559;-77
2023/10/27 03:38:53;;;;;;;8.47;1.90;;;12.30;1.00;;;;;;5106144;27;20171;-78
2023/10/27 03:41:19;;;;;;;5.60;1.60;;;12.20;1.00;;;;;;5107155;27;20437;-78
2023/10/27 03:43:44;;;;;;;9.63;1.80;;;12.20;1.00;;;;;;5100171;28;20550;-79
2023/10/27 03:46:10;;;;;;;8.70;1.93;;;12.20;1.00;;;;;;5097460;28;20211;-77
2023/10/27 03:48:35;;;;;;;8.90;1.80;;;12.20;1.00;;;;;;5105936;28;20259;-78
2023/10/27 03:51:05;;;;;;;7.60;2.20;;;12.20;1.00;;;;;;5095378;27;20266;-77
2023/10/27 03:53:34;;;;;;;7.63;2.20;;;12.20;1.00;;;;;;5104767;28;20295;-77
2023/10/27 03:55:59;;;;;;;3.67;2.13;;;12.20;1.00;;;;;;5109530;28;20455;-77
2023/10/27 03:58:25;;;;;;;5.00;1.80;;;12.20;1.00;;;;;;5100058;28;20420;-79
2023/10/27 04:00:50;;;;;;;5.30;2.10;;;12.20;1.00;;;;;;5109905;28;20262;-77
2023/10/27 04:03:16;;;;;;;6.37;2.20;;;12.20;1.00;;;;;;5105681;28;20188;-77
2023/10/27 04:05:41;;;;;;;9.40;2.53;;;12.20;1.00;;;;;;5095872;28;20527;-74
2023/10/27 04:08:07;;;;;;;8.43;2.17;;;12.30;1.00;;;;;;5105654;28;20696;-80
2023/10/27 04:10:35;;;;;;;14.90;6.17;;;12.20;1.00;;;;;;5100288;28;20191;-78
2023/10/27 04:13:00;;;;;;;21.80;9.27;;;12.20;1.00;;;;;;5091103;28;20321;-78
2023/10/27 04:15:27;;;;;;;13.40;4.97;;;12.20;1.00;;;;;;5093487;28;20466;-77
2023/10/27 04:17:52;;;;;;;9.70;3.37;;;12.20;1.00;;;;;;5094112;28;20692;-77
2023/10/27 04:20:18;;;;;;;6.00;2.83;;;12.20;1.00;;;;;;5094759;28;20457;-78
2023/10/27 04:22:43;;;;;;;4.20;2.60;;;12.20;1.00;;;;;;5092870;28;20184;-81
2023/10/27 04:25:10;;;;;;;4.80;2.63;;;12.30;1.00;;;;;;5100980;28;20579;-77
2023/10/27 04:27:36;;;;;;;4.40;2.67;;;12.30;1.00;;;;;;5105816;28;20262;-79
2023/10/27 04:30:04;;;;;;;5.03;2.90;;;12.30;1.00;;;;;;5105205;28;20451;-80
2023/10/27 04:32:29;;;;;;;5.37;2.90;;;12.20;1.00;;;;;;5108142;28;20456;-75
2023/10/27 04:34:56;;;;;;;6.30;2.80;;;12.20;1.00;;;;;;5100033;28;20570;-77
2023/10/27 04:37:21;;;;;;;7.83;2.77;;;10.00;1.00;;;;;;5099055;28;20369;-78
2023/10/27 04:39:47;;;;;;;5.73;2.47;;;12.20;1.00;;;;;;5101660;28;20528;-78
2023/10/27 04:42:13;;;;;;;9.37;2.80;;;12.20;1.00;;;;;;5108121;28;20182;-80
2023/10/27 04:44:38;;;;;;;13.70;2.90;;;12.20;1.00;;;;;;5098227;28;20245;-76
2023/10/27 04:47:04;;;;;;;7.20;2.53;;;12.20;1.00;;;;;;5095428;28;20784;-77
2023/10/27 04:49:30;;;;;;;4.60;2.60;;;12.20;1.00;;;;;;5090830;28;20180;-78
2023/10/27 04:51:55;;;;;;;8.80;3.67;;;12.20;1.00;;;;;;5090549;28;20188;-79
2023/10/27 04:54:21;;;;;;;5.30;2.90;;;12.20;1.00;;;;;;5090960;28;20180;-76
2023/10/27 04:56:46;;;;;;;6.77;3.10;;;12.20;1.00;;;;;;5095460;28;20635;-78
2023/10/27 04:59:13;;;;;;;13.43;3.13;;;12.20;1.00;;;;;;5102525;28;20224;-78
2023/10/27 05:01:38;;;;;;;12.13;3.10;;;12.30;1.00;;;;;;5102778;27;20250;-78
2023/10/27 05:04:04;;;;;;;6.40;3.17;;;12.30;1.00;;;;;;5105507;28;20525;-78
2023/10/27 05:06:30;;;;;;;6.30;2.77;;;12.30;1.00;;;;;;5104601;28;20209;-79
2023/10/27 05:08:56;;;;;;;3.90;2.07;;;12.20;1.00;;;;;;5099932;28;20206;-79
2023/10/27 05:11:22;;;;;;;3.83;2.40;;;12.20;1.00;;;;;;5099401;28;20887;-80
2023/10/27 05:13:48;;;;;;;7.20;2.97;;;12.20;1.00;;;;;;5097544;28;20294;-78
2023/10/27 05:16:13;;;;;;;7.70;2.60;;;12.20;1.00;;;;;;5105297;28;20202;-78
2023/10/27 05:18:39;;;;;;;6.50;2.20;;;12.20;1.00;;;;;;5099921;28;20203;-75
2023/10/27 05:21:04;;;;;;;7.33;2.47;;;12.10;1.00;;;;;;5097953;28;20182;-78
2023/10/27 05:23:30;;;;;;;3.73;2.30;;;12.20;1.00;;;;;;5103118;28;20179;-76
2023/10/27 05:25:55;;;;;;;3.90;2.27;;;12.10;1.00;;;;;;5095134;28;20199;-77
2023/10/27 05:28:21;;;;;;;7.40;2.23;;;12.10;1.00;;;;;;5101103;28;20300;-78
2023/10/27 05:30:50;;;;;;;3.57;2.47;;;12.10;1.00;;;;;;5103491;28;20179;-74
2023/10/27 05:33:16;;;;;;;7.47;2.77;;;12.10;1.00;;;;;;5096751;28;20259;-78
2023/10/27 05:35:41;;;;;;;8.07;3.27;;;12.10;1.00;;;;;;5091439;28;20505;-77
2023/10/27 05:38:07;;;;;;;8.40;2.60;;;12.10;1.00;;;;;;5097986;28;20186;-77
2023/10/27 05:40:33;;;;;;;11.70;2.30;;;12.00;1.00;;;;;;5101691;28;20191;-80
2023/10/27 05:42:59;;;;;;;10.80;3.20;;;11.90;1.00;;;;;;5090274;28;20422;-76
2023/10/27 05:45:24;;;;;;;4.00;2.40;;;11.90;1.00;;;;;;5087836;28;20214;-79
2023/10/27 05:47:50;;;;;;;5.00;2.37;;;11.90;1.00;;;;;;5090992;28;20252;-77
2023/10/27 05:50:15;;;;;;;5.63;2.20;;;11.90;1.00;;;;;;5093968;28;20187;-76
2023/10/27 05:52:41;;;;;;;6.50;2.23;;;11.90;1.00;;;;;;5096316;28;20203;-79
2023/10/27 05:55:07;;;;;;;5.10;2.30;;;11.90;1.00;;;;;;5088224;28;20668;-76
2023/10/27 05:57:32;;;;;;;12.10;2.70;;;11.80;1.00;;;;;;5088903;28;20221;-77
2023/10/27 05:59:58;;;;;;;6.83;2.00;;;11.80;1.00;;;;;;5090663;28;20216;-79
2023/10/27 06:02:24;;;;;;;9.80;2.37;;;11.80;1.00;;;;;;5090724;28;20186;-76
2023/10/27 06:04:49;;;;;;;4.23;2.17;;;11.80;1.00;;;;;;5098788;28;20556;-76
2023/10/27 06:07:18;;;;;;;6.40;2.60;;;11.80;1.00;;;;;;5098183;28;20476;-76
2023/10/27 06:09:44;;;;;;;7.83;2.00;;;11.80;1.00;;;;;;5107701;28;20183;-76
2023/10/27 06:12:09;;;;;;;2.23;1.73;;;11.70;1.00;;;;;;5105767;28;20981;-76
2023/10/27 06:14:35;;;;;;;3.27;1.80;;;11.70;1.00;;;;;;5101412;28;20445;-77
2023/10/27 06:17:01;;;;;;;3.87;1.63;;;11.70;1.00;;;;;;5099171;28;20222;-75
2023/10/27 06:19:26;;;;;;;4.43;1.83;;;11.70;1.00;;;;;;5096179;28;20182;-74
2023/10/27 06:21:59;;;;;;;7.03;2.03;;;11.70;1.00;;;;;;5094816;28;20179;-76
2023/10/27 06:24:24;;;;;;;3.60;1.73;;;11.60;1.00;;;;;;5098038;28;20564;-76
2023/10/27 06:26:50;;;;;;;5.90;1.80;;;11.60;1.00;;;;;;5099242;28;20473;-76
2023/10/27 06:29:17;;;;;;;2.57;1.60;;;11.50;1.00;;;;;;5107779;28;20187;-76
2023/10/27 06:31:42;;;;;;;2.80;1.90;;;11.50;1.00;;;;;;5098234;28;20650;-75
2023/10/27 06:34:08;;;;;;;4.87;2.10;;;11.60;1.00;;;;;;5100196;28;20581;-75
2023/10/27 06:36:33;;;;;;;3.30;1.80;;;11.50;1.00;;;;;;5106535;28;20425;-77
2023/10/27 06:38:59;;;;;;;2.60;1.63;;;11.60;1.00;;;;;;5110306;28;20632;-76
2023/10/27 06:41:24;;;;;;;2.03;1.33;;;11.60;1.00;;;;;;5110742;28;20247;-77
2023/10/27 06:43:50;;;;;;;12.10;1.73;;;11.50;1.00;;;;;;5108820;28;20190;-79
2023/10/27 06:46:15;;;;;;;2.40;1.27;;;11.50;1.00;;;;;;5106958;28;20204;-77
2023/10/27 06:48:41;;;;;;;6.63;1.60;;;11.50;1.00;;;;;;5089900;28;20191;-75
2023/10/27 06:51:08;;;;;;;3.80;1.93;;;11.50;1.00;;;;;;5093542;28;20681;-78
2023/10/27 06:53:33;;;;;;;1.43;1.10;;;11.50;1.00;;;;;;5110534;28;20546;-78
2023/10/27 06:55:59;;;;;;;2.90;1.30;;;11.50;1.00;;;;;;5110062;28;20447;-78
2023/10/27 06:58:24;;;;;;;2.80;1.50;;;11.50;1.00;;;;;;5110258;28;20604;-77
2023/10/27 07:00:50;;;;;;;2.13;1.30;;;11.50;1.00;;;;;;5109949;28;20207;-77
2023/10/27 07:03:15;;;;;;;2.57;1.20;;;11.50;1.00;;;;;;5106398;28;20191;-76
2023/10/27 07:05:41;;;;;;;1.97;1.30;;;11.60;1.00;;;;;;5110365;28;20182;-78
2023/10/27 07:08:06;;;;;;;3.60;1.30;;;11.60;1.00;;;;;;5109962;28;20180;-78
2023/10/27 07:10:32;;;;;;;3.17;1.20;;;11.60;1.00;;;;;;5110397;28;20182;-77
2023/10/27 07:12:58;;;;;;;3.93;1.30;;;11.60;1.00;;;;;;5109636;28;20203;-79
2023/10/27 07:15:23;;;;;;;2.60;1.30;;;11.60;1.00;;;;;;5110276;28;20266;-77
2023/10/27 07:17:49;;;;;;;2.50;1.60;;;11.60;1.00;;;;;;5101292;28;20572;-77
2023/10/27 07:20:15;;;;;;;3.33;1.60;;;11.60;1.00;;;;;;5089844;28;20595;-77
2023/10/27 07:22:40;;;;;;;1.97;1.40;;;11.60;1.00;;;;;;5089807;28;20191;-77
2023/10/27 07:25:06;;;;;;;2.13;1.33;;;11.70;1.00;;;;;;5090574;28;20586;-80
2023/10/27 07:27:33;;;;;;;2.10;1.20;;;11.70;1.00;;;;;;5089597;28;20203;-78
2023/10/27 07:29:58;;;;;;;2.10;1.20;;;11.70;1.00;;;;;;5089978;28;20282;-77
2023/10/27 07:32:24;;;;;;;1.40;1.20;;;11.70;1.00;;;;;;5089803;28;20892;-78
2023/10/27 07:34:50;;;;;;;2.13;1.30;;;11.80;1.00;;;;;;5089514;28;20180;-78
2023/10/27 07:37:17;;;;;;;2.27;1.10;;;11.80;1.00;;;;;;5102805;28;20209;-77
2023/10/27 07:39:42;;;;;;;2.00;1.40;;;11.80;1.00;;;;;;5110059;28;20202;-78
2023/10/27 07:42:09;;;;;;;2.27;1.40;;;11.90;1.00;;;;;;5108120;28;20526;-77
2023/10/27 07:44:35;;;;;;;1.43;0.90;;;12.00;1.00;;;;;;5110036;28;20751;-77
2023/10/27 07:47:00;;;;;;;1.53;1.30;;;12.00;1.00;;;;;;5099701;28;20601;-78
2023/10/27 07:49:26;;;;;;;1.30;0.93;;;12.10;1.00;;;;;;5090156;28;20183;-77
2023/10/27 07:51:51;;;;;;;1.83;1.10;;;12.10;1.00;;;;;;5092306;28;20554;-79
2023/10/27 07:54:17;;;;;;;1.70;1.10;;;12.30;1.00;;;;;;5089673;28;20233;-77
2023/10/27 07:56:42;;;;;;;1.27;1.00;;;12.50;1.00;;;;;;5089276;28;20693;-78
2023/10/27 07:59:08;;;;;;;1.47;1.20;;;12.50;1.00;;;;;;5089095;28;20204;-76
2023/10/27 08:01:34;;;;;;;1.20;1.00;;;12.80;1.00;;;;;;5089435;28;20654;-80
2023/10/27 08:04:02;;;;;;;1.63;1.17;;;13.00;1.00;;;;;;5089354;28;20266;-78
2023/10/27 08:06:28;;;;;;;3.47;1.20;;;13.10;1.00;;;;;;5089473;28;20944;-79
2023/10/27 08:08:54;;;;;;;3.10;1.20;;;13.10;1.00;;;;;;5087933;28;20483;-78
2023/10/27 08:11:19;;;;;;;1.10;0.90;;;13.10;1.00;;;;;;5087868;28;20597;-77
2023/10/27 08:13:45;;;;;;;1.90;0.90;;;13.10;1.00;;;;;;5090084;28;20206;-77
2023/10/27 08:16:10;;;;;;;2.47;1.03;;;13.30;1.00;;;;;;5104306;28;20205;-80
2023/10/27 08:18:36;;;;;;;2.03;1.00;;;13.10;1.00;;;;;;5098438;28;20182;-77
2023/10/27 08:21:02;;;;;;;1.80;1.40;;;13.20;1.00;;;;;;5092611;28;20188;-77
2023/10/27 08:23:28;;;;;;;1.63;1.13;;;13.10;1.00;;;;;;5098715;28;20293;-78
2023/10/27 08:25:53;;;;;;;1.97;1.00;;;13.20;1.00;;;;;;5112633;28;20982;-77
2023/10/27 08:28:20;;;;;;;4.70;0.90;;;13.10;1.00;;;;;;5113368;28;20175;-79
2023/10/27 08:30:46;;;;;;;7.13;1.00;;;13.20;1.00;;;;;;5113283;28;20183;-78
2023/10/27 08:33:12;;;;;;;1.20;0.90;;;13.30;1.00;;;;;;5112776;28;20464;-78
2023/10/27 08:35:37;;;;;;;1.57;0.93;;;13.20;1.00;;;;;;5113202;28;20671;-75
2023/10/27 08:38:03;;;;;;;1.70;1.10;;;13.20;1.00;;;;;;5112788;28;20183;-77
2023/10/27 08:40:28;;;;;;;2.37;1.27;;;13.30;1.00;;;;;;5107679;28;20206;-76
2023/10/27 08:42:56;;;;;;;1.17;0.80;;;13.60;1.00;;;;;;5092327;28;20180;-78
2023/10/27 08:45:23;;;;;;;1.30;0.90;;;14.10;1.00;;;;;;5096851;28;20421;-78
2023/10/27 08:47:49;;;;;;;2.50;1.00;;;14.80;1.00;;;;;;5096400;28;20454;-79
2023/10/27 08:50:15;;;;;;;1.30;0.80;;;14.90;1.00;;;;;;5096635;28;20433;-77
2023/10/27 08:52:41;;;;;;;2.10;1.10;;;15.40;1.00;;;;;;5092563;28;20975;-77
2023/10/27 08:55:10;;;;;;;1.80;1.10;;;15.60;1.00;;;;;;5092047;28;20471;-80
2023/10/27 08:57:37;;;;;;;1.20;0.80;;;15.20;1.00;;;;;;5092328;28;20203;-78
2023/10/27 09:00:08;;;;;;;1.80;0.87;;;15.20;1.00;;;;;;5093453;28;20425;-78
2023/10/27 09:02:35;;;;;;;2.47;1.20;;;15.00;1.00;;;;;;5112773;27;20500;-78
2023/10/27 09:05:08;;;;;;;1.97;0.90;;;14.90;1.00;;;;;;5103789;28;20701;-77
2023/10/27 09:07:35;;;;;;;3.10;1.00;;;14.60;1.00;;;;;;5112450;28;20458;-78
2023/10/27 09:10:01;;;;;;;1.40;1.00;;;14.40;1.00;;;;;;5111301;28;20433;-78
2023/10/27 09:12:29;;;;;;;1.57;0.90;;;16.00;1.00;;;;;;5094796;28;20465;-77
2023/10/27 09:14:59;;;;;;;1.70;1.10;;;14.20;1.00;;;;;;5091826;28;20483;-75
2023/10/27 09:17:25;;;;;;;1.83;1.00;;;14.20;1.00;;;;;;5096792;28;20481;-77
2023/10/27 09:20:05;;;;;;;1.70;0.80;;;14.30;1.00;;;;;;5108539;28;20893;-78
2023/10/27 09:22:31;;;;;;;4.80;0.90;;;14.40;1.00;;;;;;5094546;28;20187;-79
2023/10/27 09:25:17;;;;;;;1.40;0.83;;;14.60;1.00;;;;;;5108230;28;20421;-76
2023/10/27 09:27:44;;;;;;;1.50;0.97;;;14.60;1.00;;;;;;5095679;28;20282;-77
2023/10/27 09:30:24;;;;;;;1.83;0.90;;;15.10;1.00;;;;;;5110315;28;20432;-78
2023/10/27 09:32:49;;;;;;;1.70;0.90;;;15.60;1.00;;;;;;5104791;28;20971;-78
2023/10/27 09:35:17;;;;;;;1.37;0.87;;;16.10;1.00;;;;;;5108437;28;20428;-77
2023/10/27 09:37:46;;;;;;;3.40;0.90;;;16.20;1.00;;;;;;5097052;28;20574;-79
2023/10/27 09:40:13;;;;;;;2.23;1.00;;;16.10;1.00;;;;;;5091172;28;20792;-77
2023/10/27 09:42:39;;;;;;;1.30;0.97;;;15.80;1.00;;;;;;5097456;28;20470;-77
2023/10/27 09:45:11;;;;;;;1.50;1.10;;;15.30;1.00;;;;;;5110167;28;20429;-80
2023/10/27 09:47:47;;;;;;;2.13;1.17;;;15.10;1.00;;;;;;5106117;28;20527;-78
2023/10/27 09:50:21;;;;;;;1.33;1.00;;;15.20;1.00;;;;;;5092290;28;20421;-77
2023/10/27 09:52:48;;;;;;;1.20;0.90;;;15.60;1.00;;;;;;5091183;28;20466;-77
2023/10/27 09:55:17;;;;;;;3.83;1.10;;;15.90;1.00;;;;;;5093183;28;20942;-78
2023/10/27 09:57:44;;;;;;;2.13;1.13;;;16.80;1.00;;;;;;5111551;28;20490;-78
2023/10/27 10:00:13;;;;;;;1.97;1.30;;;18.20;1.00;;;;;;5100020;28;20461;-79
2023/10/27 10:02:41;;;;;;;2.13;1.20;;;18.00;1.00;;;;;;5091174;28;20422;-77
2023/10/27 10:05:09;;;;;;;1.87;1.20;;;17.40;1.00;;;;;;5091345;28;20491;-77
2023/10/27 10:07:38;;;;;;;2.30;1.00;;;16.90;1.00;;;;;;5091456;28;20460;-78
2023/10/27 10:10:25;;;;;;;1.50;1.03;;;17.20;1.00;;;;;;5090898;28;20479;-77
2023/10/27 10:13:04;;;;;;;2.13;1.30;;;17.40;1.00;;;;;;5106988;28;20461;-78
2023/10/27 10:15:38;;;;;;;2.47;1.30;;;18.10;1.00;;;;;;5095739;28;20500;-78
2023/10/27 10:18:06;;;;;;;1.90;1.10;;;18.90;1.00;;;;;;5101321;28;20422;-78
2023/10/27 10:20:58;;;;;;;2.60;1.27;;;18.40;1.00;;;;;;5102107;28;20410;-78
2023/10/27 10:23:47;;;;;;;1.57;1.00;;;17.60;1.00;;;;;;5100138;28;20437;-78
2023/10/27 10:26:13;;;;;;;2.77;1.40;;;17.00;1.00;;;;;;5109824;28;20441;-78
2023/10/27 10:28:40;;;;;;;2.63;1.20;;;16.60;1.00;;;;;;5091277;28;20791;-79
2023/10/27 10:31:13;;;;;;;3.30;1.20;;;16.30;1.00;;;;;;5090742;28;20187;-78
2023/10/27 10:33:45;;;;;;;1.40;0.90;;;15.80;1.00;;;;;;5090980;28;20471;-78
2023/10/27 10:36:22;;;;;;;2.50;1.00;;;15.60;1.00;;;;;;5108392;28;20448;-81
2023/10/27 10:38:57;;;;;;;3.77;1.23;;;15.40;1.00;;;;;;5111008;27;20489;-77
2023/10/27 10:41:41;;;;;;;1.57;1.00;;;15.50;1.00;;;;;;5097760;28;20452;-78
2023/10/27 10:44:16;;;;;;;2.17;0.97;;;15.50;1.00;;;;;;5090335;28;20433;-78
2023/10/27 10:46:43;;;;;;;2.13;1.10;;;15.40;1.00;;;;;;5091950;28;20493;-79
2023/10/27 10:49:11;;;;;;;1.80;1.20;;;15.30;1.00;;;;;;5106959;28;20529;-78
2023/10/27 10:51:37;;;;;;;1.73;1.30;;;15.00;1.00;;;;;;5095287;28;20911;-78
2023/10/27 10:54:10;;;;;;;1.87;1.07;;;15.00;1.00;;;;;;5102198;28;20464;-78
2023/10/27 10:56:36;;;;;;;2.40;1.07;;;14.90;1.00;;;;;;5090270;28;20632;-79
2023/10/27 10:59:03;;;;;;;5.77;1.40;;;14.90;1.00;;;;;;5090188;28;20513;-80
2023/10/27 11:01:29;;;;;;;6.37;1.30;;;14.90;1.00;;;;;;5089853;28;20176;-78
2023/10/27 11:03:55;;;;;;;1.53;1.10;;;15.30;1.00;;;;;;5106226;28;20516;-78
2023/10/27 11:06:24;;;;;;;1.80;1.10;;;15.40;1.00;;;;;;5108173;28;20548;-78
2023/10/27 11:08:49;;;;;;;1.90;1.33;;;15.70;1.00;;;;;;5090030;28;20442;-78
2023/10/27 11:11:17;;;;;;;2.37;1.40;;;16.80;1.00;;;;;;5091125;28;20418;-78
2023/10/27 11:13:51;;;;;;;4.13;1.17;;;19.20;1.00;;;;;;5105510;28;20199;-81
2023/10/27 11:16:24;;;;;;;4.20;2.60;;;21.30;1.00;;;;;;5092209;28;20758;-78
2023/10/27 11:18:51;;;;;;;4.50;1.73;;;21.50;1.00;;;;;;5100760;28;20765;-79
2023/10/27 11:21:18;;;;;;;5.67;1.43;;;20.60;1.00;;;;;;5092323;28;20418;-78
2023/10/27 11:23:44;;;;;;;4.13;1.60;;;19.50;1.00;;;;;;5090030;28;20492;-79
2023/10/27 11:26:10;;;;;;;6.60;2.20;;;18.60;1.00;;;;;;5098125;28;20510;-76
2023/10/27 11:28:37;;;;;;;3.60;1.70;;;20.50;1.00;;;;;;5102295;28;20239;-77
2023/10/27 11:31:13;;;;;;;4.90;1.53;;;17.60;1.00;;;;;;5105017;28;20425;-76
2023/10/27 11:34:02;;;;;;;6.07;2.30;;;17.10;1.00;;;;;;5089879;28;20464;-79
2023/10/27 11:36:28;;;;;;;2.43;1.60;;;16.40;1.00;;;;;;5090468;28;21749;-79
2023/10/27 11:38:55;;;;;;;3.83;1.57;;;16.10;1.00;;;;;;5089695;28;20435;-79
2023/10/27 11:41:21;;;;;;;7.90;1.60;;;16.00;1.00;;;;;;5099441;28;20428;-77
2023/10/27 11:43:46;;;;;;;7.73;1.53;;;15.90;1.00;;;;;;5109931;28;20516;-78
2023/10/27 11:46:13;;;;;;;3.20;1.33;;;15.90;1.00;;;;;;5109475;28;20516;-77
2023/10/27 11:48:39;;;;;;;2.67;1.40;;;16.00;1.00;;;;;;5106207;28;20737;-78
2023/10/27 11:51:06;;;;;;;5.90;1.57;;;16.00;1.00;;;;;;5101360;28;20464;-77
2023/10/27 11:53:32;;;;;;;3.17;1.40;;;15.90;1.00;;;;;;5105166;28;20457;-77
2023/10/27 11:55:59;;;;;;;4.63;1.70;;;18.80;1.00;;;;;;5106972;28;20434;-77
2023/10/27 11:58:25;;;;;;;2.43;1.33;;;16.60;1.00;;;;;;5103741;28;20420;-80
2023/10/27 12:00:50;;;;;;;2.93;1.57;;;16.80;1.00;;;;;;5113792;28;20424;-77
2023/10/27 12:03:16;;;;;;;2.30;1.53;;;16.70;1.00;;;;;;5113852;28;20183;-78
2023/10/27 12:05:41;;;;;;;4.40;1.60;;;16.40;1.00;;;;;;5100825;28;20187;-77
2023/10/27 12:08:07;;;;;;;3.20;1.33;;;16.40;1.00;;;;;;5093485;28;20566;-77
2023/10/27 12:10:32;;;;;;;2.70;1.47;;;16.10;1.00;;;;;;5101428;28;20275;-77
2023/10/27 12:12:59;;;;;;;4.43;1.60;;;15.80;1.00;;;;;;5093041;28;20623;-77
2023/10/27 12:15:24;;;;;;;5.10;1.60;;;15.60;1.00;;;;;;5103305;28;20195;-77
2023/10/27 12:17:50;;;;;;;2.10;1.20;;;15.40;1.00;;;;;;5107851;28;20478;-79
2023/10/27 12:20:17;;;;;;;2.50;1.53;;;15.20;1.00;;;;;;5105877;28;20176;-79
2023/10/27 12:22:45;;;;;;;4.60;1.60;;;14.90;1.00;;;;;;5101256;28;20179;-76
2023/10/27 12:25:12;;;;;;;3.30;1.73;;;14.80;1.00;;;;;;5092743;28;20740;-77
2023/10/27 12:27:38;;;;;;;2.63;1.77;;;14.70;1.00;;;;;;5092637;28;20448;-77
2023/10/27 12:30:04;;;;;;;4.87;1.70;;;14.30;1.00;;;;;;5092769;28;20429;-77
2023/10/27 12:32:32;;;;;;;7.43;1.90;;;14.00;1.00;;;;;;5090983;28;20659;-77
2023/10/27 12:34:58;;;;;;;2.60;1.80;;;13.80;1.00;;;;;;5092815;28;20180;-77
2023/10/27 12:37:24;;;;;;;8.47;1.70;;;13.70;1.00;;;;;;5092334;28;20452;-77
2023/10/27 12:39:50;;;;;;;5.63;1.67;;;13.70;1.00;;;;;;5092632;28;20425;-78
2023/10/27 12:42:16;;;;;;;5.60;2.70;;;13.70;1.00;;;;;;5090796;28;20190;-76
2023/10/27 12:44:42;;;;;;;4.80;2.10;;;13.80;1.00;;;;;;5092531;28;20206;-77
2023/10/27 12:47:07;;;;;;;5.47;2.77;;;13.90;1.00;;;;;;5102897;28;20436;-78
2023/10/27 12:49:33;;;;;;;4.13;2.30;;;14.00;1.00;;;;;;5092795;28;20187;-77
2023/10/27 12:51:58;;;;;;;3.67;1.80;;;14.30;1.00;;;;;;5092032;28;20194;-75